Time;durP1;ratioP1;P1;durP2;ratioP2;P2;SDS_P1;SDS_P2;PMS_P1;PMS_P2;Temp;Humidity;BMP_temperature;BMP_pressure;BME280_temperature;BME280_humidity;BME280_pressure;Samples;Min_cycle;Max_cycle;Signal;HPM_P1;HPM_P2
2022/12/16 00:00:10;;;;;;;17.70;9.73;;;0.70;1.00;;;;;;5054546;28;20473;-49
2022/12/16 00:02:35;;;;;;;21.40;9.10;;;0.70;1.00;;;;;;5052757;28;20040;-46
2022/12/16 00:05:01;;;;;;;13.57;8.48;;;0.70;1.00;;;;;;5053073;28;20017;-46
2022/12/16 00:07:27;;;;;;;17.10;9.55;;;0.80;1.00;;;;;;5054257;28;20040;-49
2022/12/16 00:09:53;;;;;;;19.02;9.43;;;0.80;1.00;;;;;;5052831;28;20021;-47
2022/12/16 00:12:18;;;;;;;24.40;9.73;;;0.80;1.00;;;;;;5053958;28;20106;-47
2022/12/16 00:14:44;;;;;;;18.33;8.50;;;0.80;1.00;;;;;;5054146;28;20021;-45
2022/12/16 00:17:10;;;;;;;17.88;9.02;;;0.80;1.00;;;;;;5053969;28;20048;-48
2022/12/16 00:19:35;;;;;;;20.77;9.60;;;0.80;1.00;;;;;;5052541;28;20022;-48
2022/12/16 00:22:01;;;;;;;15.20;7.78;;;0.80;1.00;;;;;;5052838;28;20128;-49
2022/12/16 00:24:30;;;;;;;18.60;8.57;;;0.80;1.00;;;;;;5052861;28;20021;-45
2022/12/16 00:26:56;;;;;;;18.77;9.02;;;0.80;1.00;;;;;;5052588;28;20039;-46
2022/12/16 00:29:22;;;;;;;21.00;9.10;;;0.80;99.90;;;;;;5052383;28;20053;-46
2022/12/16 00:31:47;;;;;;;21.95;8.60;;;0.80;99.90;;;;;;5053950;28;20048;-45
2022/12/16 00:34:14;;;;;;;15.93;7.68;;;0.80;99.90;;;;;;5053711;28;20449;-45
2022/12/16 00:36:39;;;;;;;17.15;8.45;;;0.80;99.90;;;;;;5052383;28;20017;-47
2022/12/16 00:39:05;;;;;;;17.80;8.57;;;0.80;99.90;;;;;;5053547;28;20039;-50
2022/12/16 00:41:31;;;;;;;17.08;9.00;;;0.70;99.90;;;;;;5053415;28;20017;-50
2022/12/16 00:43:57;;;;;;;18.58;9.43;;;0.70;99.90;;;;;;5052220;28;20036;-43
2022/12/16 00:46:22;;;;;;;18.98;9.07;;;0.60;99.90;;;;;;5053621;28;20108;-48
2022/12/16 00:48:48;;;;;;;10.43;5.72;;;0.70;99.90;;;;;;5053778;28;20053;-47
2022/12/16 00:51:14;;;;;;;18.75;8.00;;;0.80;1.00;;;;;;5054544;28;20021;-45
2022/12/16 00:53:39;;;;;;;17.42;7.93;;;0.90;99.90;;;;;;5073681;28;20023;-45
2022/12/16 00:56:10;;;;;;;18.98;8.13;;;0.90;99.90;;;;;;5071963;28;20027;-45
2022/12/16 00:58:36;;;;;;;15.38;7.57;;;0.90;99.90;;;;;;5072022;28;20126;-47
2022/12/16 01:01:03;;;;;;;21.58;8.15;;;0.80;99.90;;;;;;5072494;28;20109;-46
2022/12/16 01:03:29;;;;;;;11.43;7.68;;;0.90;99.90;;;;;;5072922;28;20393;-44
2022/12/16 01:05:55;;;;;;;17.88;9.18;;;0.90;99.90;;;;;;5071738;28;20023;-44
2022/12/16 01:08:21;;;;;;;15.10;8.65;;;0.90;99.90;;;;;;5069415;28;20040;-46
2022/12/16 01:10:55;;;;;;;22.42;8.48;;;0.80;99.90;;;;;;5052841;28;20053;-45
2022/12/16 01:13:23;;;;;;;21.95;8.10;;;0.80;99.90;;;;;;5052985;28;20082;-50
2022/12/16 01:15:49;;;;;;;14.70;8.35;;;0.80;99.90;;;;;;5052735;28;20028;-47
2022/12/16 01:18:15;;;;;;;20.27;8.57;;;0.80;99.90;;;;;;5052997;28;20027;-46
2022/12/16 01:20:41;;;;;;;14.23;7.93;;;0.80;99.90;;;;;;5052820;28;20164;-44
2022/12/16 01:23:07;;;;;;;17.30;8.45;;;0.80;99.90;;;;;;5052640;28;20112;-45
2022/12/16 01:25:32;;;;;;;19.25;9.65;;;0.70;99.90;;;;;;5052837;28;20032;-50
2022/12/16 01:27:58;;;;;;;21.60;8.63;;;0.70;99.90;;;;;;5052456;28;20488;-46
2022/12/16 01:30:24;;;;;;;19.63;8.95;;;0.60;99.90;;;;;;5052532;28;20033;-45
2022/12/16 01:32:50;;;;;;;19.83;9.07;;;0.60;99.90;;;;;;5052648;28;20060;-46
2022/12/16 01:35:15;;;;;;;15.10;8.38;;;0.50;99.90;;;;;;5052527;28;20017;-44
2022/12/16 01:37:41;;;;;;;18.45;9.20;;;0.60;99.90;;;;;;5052732;28;20025;-44
2022/12/16 01:40:15;;;;;;;20.08;8.88;;;0.60;99.90;;;;;;5050984;28;20466;-45
2022/12/16 01:42:42;;;;;;;16.33;7.90;;;0.50;99.90;;;;;;5052256;28;20079;-48
2022/12/16 01:45:32;;;;;;;20.20;10.02;;;0.50;99.90;;;;;;5052326;28;20104;-46
2022/12/16 01:48:04;;;;;;;18.08;9.10;;;0.40;99.90;;;;;;5052261;28;20029;-47
2022/12/16 01:50:31;;;;;;;22.00;8.63;;;0.40;99.90;;;;;;5052234;28;20048;-49
2022/12/16 01:53:00;;;;;;;14.02;7.82;;;0.30;99.90;;;;;;5050715;28;20025;-47
2022/12/16 01:55:39;;;;;;;18.00;8.68;;;0.30;99.90;;;;;;5052003;28;20078;-49
2022/12/16 01:58:11;;;;;;;18.05;8.95;;;0.30;99.90;;;;;;5052198;28;20032;-46
2022/12/16 02:00:38;;;;;;;23.35;10.35;;;0.20;99.90;;;;;;5051925;28;20424;-50
2022/12/16 02:03:05;;;;;;;18.65;8.65;;;0.20;1.00;;;;;;5051780;28;20226;-46
2022/12/16 02:05:34;;;;;;;18.27;9.50;;;0.20;1.00;;;;;;5052010;28;20021;-46
2022/12/16 02:08:09;;;;;;;16.83;8.02;;;0.20;1.00;;;;;;5052039;28;20028;-47
2022/12/16 02:11:22;;;;;;;16.67;8.40;;;0.20;1.00;;;;;;5052030;28;20017;-48
2022/12/16 02:14:14;;;;;;;13.00;7.45;;;0.20;1.00;;;;;;5027612;28;20047;-47
2022/12/16 02:17:00;;;;;;;11.38;7.72;;;0.20;1.00;;;;;;5051690;28;20025;-47
2022/12/16 02:19:51;;;;;;;16.77;8.50;;;0.20;1.00;;;;;;5051793;28;20036;-49
2022/12/16 02:22:35;;;;;;;16.92;8.68;;;0.20;1.00;;;;;;5031676;28;20033;-47
2022/12/16 02:25:04;;;;;;;20.15;7.78;;;0.30;1.00;;;;;;5031793;28;20022;-46
2022/12/16 02:27:51;;;;;;;20.55;8.52;;;0.30;1.00;;;;;;5031520;28;20021;-49
2022/12/16 02:30:46;;;;;;;20.23;8.15;;;0.30;1.00;;;;;;5031561;28;20029;-48
2022/12/16 02:33:26;;;;;;;23.58;8.90;;;0.20;1.00;;;;;;5033598;28;20735;-48
2022/12/16 02:36:33;;;;;;;17.17;7.82;;;0.30;1.00;;;;;;5051651;28;20146;-47
2022/12/16 02:39:11;;;;;;;16.92;8.27;;;0.20;1.00;;;;;;5051364;28;20029;-45
2022/12/16 02:41:36;;;;;;;16.65;8.43;;;0.20;1.00;;;;;;5050997;28;20021;-46
2022/12/16 02:44:05;;;;;;;20.50;8.18;;;0.20;1.00;;;;;;5051460;28;20033;-45
2022/12/16 02:46:33;;;;;;;18.52;9.10;;;0.10;1.00;;;;;;5049921;28;20028;-50
2022/12/16 02:49:29;;;;;;;16.35;8.88;;;0.20;1.00;;;;;;5051186;28;20029;-46
2022/12/16 02:51:58;;;;;;;19.60;7.95;;;0.20;1.00;;;;;;5043702;28;20041;-46
2022/12/16 02:54:24;;;;;;;18.23;8.27;;;0.10;1.00;;;;;;5051089;28;20032;-44
2022/12/16 02:56:50;;;;;;;18.00;8.93;;;0.10;1.00;;;;;;5051337;28;20025;-46
2022/12/16 02:59:40;;;;;;;24.48;8.57;;;0.10;1.00;;;;;;5049851;28;20021;-47
2022/12/16 03:02:18;;;;;;;23.30;9.23;;;0.20;1.00;;;;;;5050781;28;20557;-45
2022/12/16 03:05:15;;;;;;;15.10;8.07;;;0.10;1.00;;;;;;5051410;28;20104;-45
2022/12/16 03:07:42;;;;;;;16.00;8.52;;;0.10;1.00;;;;;;5037575;28;20389;-46
2022/12/16 03:10:12;;;;;;;22.02;8.57;;;0.00;1.00;;;;;;5051108;28;20140;-45
2022/12/16 03:12:41;;;;;;;16.10;8.95;;;0.00;1.00;;;;;;5051130;28;20036;-45
2022/12/16 03:15:08;;;;;;;18.70;8.80;;;0.00;1.00;;;;;;5051081;28;20104;-44
2022/12/16 03:17:35;;;;;;;21.90;8.45;;;0.00;7.50;;;;;;5051044;28;20430;-47
2022/12/16 03:20:23;;;;;;;19.98;8.82;;;0.00;20.50;;;;;;5049925;28;20409;-44
2022/12/16 03:22:52;;;;;;;16.38;7.80;;;-0.10;11.60;;;;;;5050944;28;20032;-46
2022/12/16 03:25:20;;;;;;;15.82;8.18;;;0.00;48.80;;;;;;5053388;28;20496;-45
2022/12/16 03:28:00;;;;;;;13.38;6.80;;;0.00;58.30;;;;;;5053792;28;20032;-44
2022/12/16 03:30:35;;;;;;;22.33;8.48;;;0.00;58.70;;;;;;5053483;28;20044;-46
2022/12/16 03:33:17;;;;;;;22.25;8.57;;;0.00;87.70;;;;;;5054752;28;20371;-46
2022/12/16 03:35:49;;;;;;;;;;;0.00;77.20;;;;;;5053981;28;20465;-45
2022/12/16 03:38:16;;;;;;;12.60;7.35;;;0.10;99.90;;;;;;5054966;28;19908;-47
2022/12/16 03:40:43;;;;;;;16.45;7.32;;;0.10;99.90;;;;;;5054711;28;20071;-47
2022/12/16 03:43:13;;;;;;;18.02;8.40;;;0.20;99.90;;;;;;5054411;28;20033;-47
2022/12/16 03:45:42;;;;;;;19.58;8.32;;;0.20;99.90;;;;;;5054580;28;20021;-43
2022/12/16 03:48:10;;;;;;;18.80;8.13;;;0.20;93.20;;;;;;5054469;28;20570;-45
2022/12/16 03:50:38;;;;;;;25.85;9.00;;;0.20;76.10;;;;;;5054488;28;20027;-49
2022/12/16 03:53:04;;;;;;;18.58;8.63;;;0.20;57.50;;;;;;5054585;28;20621;-46
2022/12/16 03:55:31;;;;;;;20.77;9.70;;;0.10;45.10;;;;;;5054420;28;20029;-44
2022/12/16 03:57:56;;;;;;;22.25;9.40;;;0.00;47.00;;;;;;5054482;28;20105;-46
2022/12/16 04:00:22;;;;;;;18.50;9.65;;;0.10;65.00;;;;;;5053914;28;20116;-46
2022/12/16 04:02:48;;;;;;;15.60;8.48;;;0.10;81.90;;;;;;5054054;28;20041;-46
2022/12/16 04:05:15;;;;;;;18.55;8.25;;;0.10;86.70;;;;;;5054343;28;20024;-47
2022/12/16 04:07:41;;;;;;;20.02;8.75;;;0.00;83.80;;;;;;5054347;28;20100;-44
2022/12/16 04:10:07;;;;;;;18.65;8.95;;;0.10;99.90;;;;;;5052734;28;20052;-47
2022/12/16 04:26:22;;;;;;;22.70;10.00;;;0.10;99.90;;;;;;5054090;28;20028;-47
2022/12/16 04:28:48;;;;;;;17.88;8.85;;;0.20;99.90;;;;;;5053800;28;20029;-44
2022/12/16 04:31:14;;;;;;;19.20;8.50;;;0.20;99.90;;;;;;5053794;28;20033;-45
